Time;durP1;ratioP1;P1;durP2;ratioP2;P2;SDS_P1;SDS_P2;PMS_P1;PMS_P2;Temp;Humidity;BMP_temperature;BMP_pressure;BME280_temperature;BME280_humidity;BME280_pressure;Samples;Min_cycle;Max_cycle;Signal;HPM_P1;HPM_P2
2022/05/15 00:02:06;;;;;;;;;;;;;;;10.17;77.32;101800.41;5012103;28;19959;-84
2022/05/15 00:04:31;;;;;;;;;;;;;;;10.17;77.01;101801.28;4995777;28;20373;-83
2022/05/15 00:06:56;;;;;;;;;;;;;;;10.09;76.87;101797.75;4995435;28;20368;-85
2022/05/15 00:09:22;;;;;;;;;;;;;;;10.13;77.15;101795.16;4995326;28;20455;-82
2022/05/15 00:11:47;;;;;;;;;;;;;;;10.08;77.37;101796.88;4995388;28;19909;-84
2022/05/15 00:14:12;;;;;;;;;;;;;;;9.97;77.44;101799.44;5011776;28;20393;-83
2022/05/15 00:16:37;;;;;;;;;;;;;;;10.09;78.55;101796.03;4995254;28;20003;-83
2022/05/15 00:19:02;;;;;;;;;;;;;;;9.97;77.38;101809.91;4995237;28;19999;-83
2022/05/15 00:21:28;;;;;;;;;;;;;;;9.91;77.71;101804.66;4995231;28;19959;-83
2022/05/15 00:23:53;;;;;;;;;;;;;;;9.81;77.17;101802.88;4995622;28;19971;-83
2022/05/15 00:26:18;;;;;;;;;;;;;;;9.72;77.02;101802.81;4995243;28;20369;-83
2022/05/15 00:28:43;;;;;;;;;;;;;;;9.62;76.95;101805.38;4995111;28;20284;-83
2022/05/15 00:31:09;;;;;;;;;;;;;;;9.63;77.65;101796.69;4995462;28;20373;-84
2022/05/15 00:33:34;;;;;;;;;;;;;;;9.65;77.21;101801.91;4995049;28;19909;-83
2022/05/15 00:35:59;;;;;;;;;;;;;;;9.59;77.52;101802.75;4995390;28;19917;-83
2022/05/15 00:38:24;;;;;;;;;;;;;;;9.53;76.97;101804.44;5011903;28;19916;-84
2022/05/15 00:40:50;;;;;;;;;;;;;;;9.57;77.31;101806.22;5011496;28;19917;-83
2022/05/15 00:43:34;;;;;;;;;;;;;;;9.43;77.81;101800.91;5011742;28;19910;-83
2022/05/15 00:46:00;;;;;;;;;;;;;;;9.55;77.61;101806.22;5011556;28;19909;-84
2022/05/15 00:48:25;;;;;;;;;;;;;;;9.48;77.23;101805.28;4995337;28;19909;-83
2022/05/15 00:50:50;;;;;;;;;;;;;;;9.55;77.04;101803.59;4995276;28;19948;-83
2022/05/15 00:53:15;;;;;;;;;;;;;;;9.52;77.17;101805.34;4995158;28;19948;-83
2022/05/15 00:55:42;;;;;;;;;;;;;;;9.48;78.06;101804.44;5011691;28;19953;-83
2022/05/15 00:58:09;;;;;;;;;;;;;;;9.65;77.40;101812.34;4995402;28;19909;-83
2022/05/15 01:00:34;;;;;;;;;;;;;;;9.72;77.54;101814.16;5012848;28;19910;-83
2022/05/15 01:03:13;;;;;;;;;;;;;;;9.64;77.16;101816.69;4998990;28;19936;-83
2022/05/15 01:05:40;;;;;;;;;;;;;;;9.59;77.45;101815.78;5015319;28;19952;-83
2022/05/15 01:08:05;;;;;;;;;;;;;;;9.61;77.59;101816.69;4999091;28;19910;-83
2022/05/15 01:10:30;;;;;;;;;;;;;;;9.61;77.11;101810.59;4998935;28;19910;-84
2022/05/15 01:12:57;;;;;;;;;;;;;;;9.60;78.44;101814.09;4998611;28;19971;-83
2022/05/15 01:15:24;;;;;;;;;;;;;;;9.57;77.41;101812.31;4998855;28;19917;-83
2022/05/15 01:17:49;;;;;;;;;;;;;;;9.59;76.47;101815.78;4998579;28;19909;-83
2022/05/15 01:20:16;;;;;;;;;;;;;;;9.41;76.31;101813.09;5014692;28;20035;-83
2022/05/15 01:22:41;;;;;;;;;;;;;;;9.28;76.91;101812.13;4998469;28;19914;-83
2022/05/15 01:25:10;;;;;;;;;;;;;;;9.22;76.74;101812.97;4998418;28;19917;-83
2022/05/15 01:27:35;;;;;;;;;;;;;;;9.11;77.13;101804.19;5015051;28;20535;-83
2022/05/15 01:30:00;;;;;;;;;;;;;;;9.06;77.10;101811.09;5014930;28;19999;-84
2022/05/15 01:32:25;;;;;;;;;;;;;;;9.05;77.50;101804.13;5015045;28;19992;-83
2022/05/15 01:34:50;;;;;;;;;;;;;;;9.04;77.47;101812.81;4998245;28;20008;-84
2022/05/15 01:37:16;;;;;;;;;;;;;;;8.96;76.98;101816.22;4998584;28;20020;-83
2022/05/15 01:39:41;;;;;;;;;;;;;;;8.88;76.94;101807.47;5014399;28;19916;-85
2022/05/15 01:42:06;;;;;;;;;;;;;;;8.87;77.80;101810.94;5014596;28;19916;-83
2022/05/15 01:44:31;;;;;;;;;;;;;;;8.93;77.71;101821.41;4998218;28;19916;-83
2022/05/15 01:46:57;;;;;;;;;;;;;;;8.93;77.25;101810.09;4998246;28;19920;-82
2022/05/15 01:49:22;;;;;;;;;;;;;;;8.95;77.15;101811.88;4998077;28;20008;-83
2022/05/15 01:51:47;;;;;;;;;;;;;;;8.84;77.81;101810.91;5014446;28;20015;-83
2022/05/15 01:54:12;;;;;;;;;;;;;;;8.83;76.68;101814.38;4998055;28;19959;-83
2022/05/15 01:56:38;;;;;;;;;;;;;;;8.76;77.11;101813.44;5014495;28;19917;-82
2022/05/15 01:59:04;;;;;;;;;;;;;;;8.73;77.43;101817.78;4997900;28;19916;-83
2022/05/15 02:01:29;;;;;;;;;;;;;;;8.72;77.59;101810.81;5014194;28;19909;-83
2022/05/15 02:03:54;;;;;;;;;;;;;;;8.67;77.61;101808.16;5014183;28;19976;-83
2022/05/15 02:06:19;;;;;;;;;;;;;;;8.66;77.46;101813.34;5014196;28;19917;-83
2022/05/15 02:08:44;;;;;;;;;;;;;;;8.59;76.99;101818.50;4997525;28;19910;-83
2022/05/15 02:11:10;;;;;;;;;;;;;;;8.54;77.14;101809.75;4997317;28;20021;-83
2022/05/15 02:13:35;;;;;;;;;;;;;;;8.53;77.58;101815.81;4997502;28;19909;-83
2022/05/15 02:16:00;;;;;;;;;;;;;;;8.54;76.43;101817.56;4997831;28;19914;-83
2022/05/15 02:18:25;;;;;;;;;;;;;;;8.50;77.50;101818.41;4997920;28;20324;-84
2022/05/15 02:20:51;;;;;;;;;;;;;;;8.47;78.61;101823.59;4997370;28;20105;-84
2022/05/15 02:23:16;;;;;;;;;;;;;;;8.46;78.17;101820.09;4998700;28;19920;-83
2022/05/15 02:25:41;;;;;;;;;;;;;;;8.41;77.79;101815.66;4997077;28;19909;-82
2022/05/15 02:28:07;;;;;;;;;;;;;;;8.38;77.76;101810.44;5013260;28;20356;-83
2022/05/15 02:30:32;;;;;;;;;;;;;;;8.38;78.02;101813.03;4997016;28;20427;-83
2022/05/15 02:32:57;;;;;;;;;;;;;;;8.44;77.34;101810.50;4997573;28;19909;-83
2022/05/15 02:35:22;;;;;;;;;;;;;;;8.38;77.89;101811.28;4996880;28;19913;-83
2022/05/15 02:37:48;;;;;;;;;;;;;;;8.37;77.78;101819.09;4996583;28;19909;-82
2022/05/15 02:40:14;;;;;;;;;;;;;;;8.34;77.76;101813.84;4996599;28;19955;-82
2022/05/15 02:42:39;;;;;;;;;;;;;;;8.32;77.35;101812.94;4996613;28;20365;-83
2022/05/15 02:45:05;;;;;;;;;;;;;;;8.29;76.95;101811.22;4996511;28;20373;-83
2022/05/15 02:47:30;;;;;;;;;;;;;;;8.24;78.04;101812.88;4996634;28;20436;-82
2022/05/15 02:52:39;;;;;;;;;;;;;;;8.15;77.45;101813.63;5013019;28;19916;-83
2022/05/15 02:55:05;;;;;;;;;;;;;;;8.17;78.38;101817.16;5011653;28;19917;-84
2022/05/15 02:57:30;;;;;;;;;;;;;;;8.15;78.04;101812.78;4996558;28;19914;-83
2022/05/15 02:59:55;;;;;;;;;;;;;;;8.10;77.64;101810.13;4996330;28;19996;-83
2022/05/15 03:02:20;;;;;;;;;;;;;;;8.16;77.42;101814.53;4996451;28;19910;-83
2022/05/15 03:04:47;;;;;;;;;;;;;;;8.19;77.43;101819.75;4996469;28;19910;-83
2022/05/15 03:07:12;;;;;;;;;;;;;;;8.19;77.84;101824.97;4996504;28;20384;-83
2022/05/15 03:09:37;;;;;;;;;;;;;;;8.10;77.76;101825.75;4995964;28;19910;-84
2022/05/15 03:12:02;;;;;;;;;;;;;;;8.02;77.34;101819.56;4996208;28;19932;-83
2022/05/15 03:14:28;;;;;;;;;;;;;;;8.02;77.77;101827.38;5012651;28;19964;-83
2022/05/15 03:16:53;;;;;;;;;;;;;;;8.05;77.68;101828.28;4996338;28;19909;-83
2022/05/15 03:19:18;;;;;;;;;;;;;;;8.09;77.89;101829.19;4995904;28;19909;-83
2022/05/15 03:24:13;;;;;;;;;;;;;;;8.09;77.68;101839.59;5030984;28;20288;-82
2022/05/15 03:26:39;;;;;;;;;;;;;;;8.04;77.50;101841.28;4999624;28;19913;-82
2022/05/15 03:29:04;;;;;;;;;;;;;;;8.00;77.71;101836.88;5015548;28;19948;-82
2022/05/15 03:31:30;;;;;;;;;;;;;;;7.97;78.40;101848.13;4999320;28;19979;-82
2022/05/15 03:33:55;;;;;;;;;;;;;;;8.00;77.34;101844.69;5015802;28;20408;-82
2022/05/15 03:36:21;;;;;;;;;;;;;;;7.96;78.13;101843.75;4998958;28;20391;-82
2022/05/15 03:38:47;;;;;;;;;;;;;;;8.00;77.59;101845.56;5015962;28;19909;-82
2022/05/15 03:41:13;;;;;;;;;;;;;;;8.07;78.47;101844.81;5015314;28;20276;-83
2022/05/15 03:43:38;;;;;;;;;;;;;;;8.24;78.08;101850.19;5015930;28;19970;-82
2022/05/15 03:46:04;;;;;;;;;;;;;;;8.23;78.18;101853.66;5015514;28;20423;-82
2022/05/15 03:48:29;;;;;;;;;;;;;;;8.15;78.72;101851.81;4999199;28;20193;-82
2022/05/15 03:50:54;;;;;;;;;;;;;;;8.12;77.80;101850.06;5014947;28;19909;-83
2022/05/15 03:53:19;;;;;;;;;;;;;;;8.03;78.47;101855.13;4999215;28;19909;-82
2022/05/15 03:55:45;;;;;;;;;;;;;;;7.99;78.43;101858.53;5015733;28;19935;-83
2022/05/15 03:58:10;;;;;;;;;;;;;;;8.01;77.40;101854.25;4999216;28;20271;-82
2022/05/15 04:00:35;;;;;;;;;;;;;;;8.01;77.95;101860.31;5018044;28;20376;-83
2022/05/15 04:03:00;;;;;;;;;;;;;;;7.96;78.81;101859.38;5015969;28;19909;-83
2022/05/15 04:05:26;;;;;;;;;;;;;;;8.04;78.60;101856.88;5018133;28;19913;-83
2022/05/15 04:07:51;;;;;;;;;;;;;;;8.02;78.71;101867.28;5017468;28;20007;-83
2022/05/15 04:10:18;;;;;;;;;;;;;;;8.07;78.90;101867.31;4999465;28;19913;-82
2022/05/15 04:12:43;;;;;;;;;;;;;;;8.12;79.47;101865.66;4999168;28;19909;-82
2022/05/15 04:15:08;;;;;;;;;;;;;;;8.15;79.16;101870.03;4999376;28;20271;-82
2022/05/15 04:17:39;;;;;;;;;;;;;;;8.10;78.73;101875.19;4999182;28;20364;-82
2022/05/15 04:20:04;;;;;;;;;;;;;;;8.20;79.05;101870.97;4999536;28;19967;-82
2022/05/15 04:22:29;;;;;;;;;;;;;;;8.19;78.89;101869.22;5015556;28;19917;-83
2022/05/15 04:24:54;;;;;;;;;;;;;;;8.24;79.21;101878.81;4999221;28;19909;-82
2022/05/15 04:27:20;;;;;;;;;;;;;;;8.28;78.82;101880.63;5015808;28;19936;-82
2022/05/15 04:29:45;;;;;;;;;;;;;;;8.34;79.61;101872.00;4999087;28;19958;-83
2022/05/15 04:32:10;;;;;;;;;;;;;;;8.46;78.35;101882.59;4999215;28;20032;-83
2022/05/15 04:34:35;;;;;;;;;;;;;;;8.49;79.18;101879.16;4999383;28;20015;-82
2022/05/15 04:37:01;;;;;;;;;;;;;;;8.59;78.97;101881.00;5019488;28;19962;-83
2022/05/15 04:39:26;;;;;;;;;;;;;;;8.63;79.00;101874.97;5002954;28;19951;-82
2022/05/15 04:41:51;;;;;;;;;;;;;;;8.71;78.90;101877.69;5003436;28;19909;-83
2022/05/15 04:44:16;;;;;;;;;;;;;;;8.72;78.03;101881.13;5002864;28;20071;-82
2022/05/15 04:46:41;;;;;;;;;;;;;;;8.80;79.20;101877.75;5003259;28;20059;-82
2022/05/15 04:49:07;;;;;;;;;;;;;;;8.82;79.46;101885.59;5002906;28;19916;-83
2022/05/15 04:51:32;;;;;;;;;;;;;;;8.88;78.75;101893.47;5003187;28;19915;-83
2022/05/15 04:53:57;;;;;;;;;;;;;;;8.90;79.53;101891.75;5019155;28;20396;-83
2022/05/15 04:56:23;;;;;;;;;;;;;;;8.86;80.50;101892.59;5002781;28;19913;-81
2022/05/15 04:58:48;;;;;;;;;;;;;;;8.91;80.50;101890.03;5002556;28;19962;-80
2022/05/15 05:01:13;;;;;;;;;;;;;;;9.02;80.45;101900.53;5002347;28;19940;-80
2022/05/15 05:03:38;;;;;;;;;;;;;;;9.04;82.74;101904.03;5003855;28;20323;-82
2022/05/15 05:06:04;;;;;;;;;;;;;;;9.01;83.78;101891.84;5004628;28;20323;-84
2022/05/15 05:08:29;;;;;;;;;;;;;;;9.09;83.17;101899.75;5007885;28;19909;-83
2022/05/15 05:10:54;;;;;;;;;;;;;;;9.18;82.01;101904.19;5005088;28;19966;-83
2022/05/15 05:13:20;;;;;;;;;;;;;;;9.24;81.91;101905.09;5021171;28;19909;-83
2022/05/15 05:15:45;;;;;;;;;;;;;;;9.30;81.40;101899.94;5003247;28;20078;-83
2022/05/15 05:18:13;;;;;;;;;;;;;;;9.31;81.40;101911.22;5002845;28;20054;-84
2022/05/15 05:20:38;;;;;;;;;;;;;;;9.24;82.23;101906.81;5019894;28;19909;-85
2022/05/15 05:23:03;;;;;;;;;;;;;;;9.26;82.04;101907.72;5019169;28;19920;-86
2022/05/15 05:25:28;;;;;;;;;;;;;;;9.27;82.30;101912.94;5002947;28;19916;-87
2022/05/15 05:27:54;;;;;;;;;;;;;;;9.33;81.88;101914.72;5002247;28;20268;-85
2022/05/15 05:30:20;;;;;;;;;;;;;;;9.37;82.32;101918.25;5003304;28;20386;-87
2022/05/15 05:32:46;;;;;;;;;;;;;;;9.51;81.88;101914.00;5003089;28;19936;-86
2022/05/15 05:35:11;;;;;;;;;;;;;;;9.59;82.69;101920.16;5002681;28;20361;-87
2022/05/15 05:37:36;;;;;;;;;;;;;;;9.55;83.97;101914.91;5019226;28;19962;-86
2022/05/15 05:40:02;;;;;;;;;;;;;;;9.54;84.06;101919.22;5002273;28;19916;-86
2022/05/15 05:42:28;;;;;;;;;;;;;;;9.57;84.36;101921.88;5002926;28;19916;-92
2022/05/15 05:44:54;;;;;;;;;;;;;;;9.62;83.61;101922.75;5002508;28;19913;-87
2022/05/15 05:47:26;;;;;;;;;;;;;;;9.74;83.56;101931.56;5001138;28;19958;-86
2022/05/15 05:49:51;;;;;;;;;;;;;;;9.83;82.76;101921.19;5002052;28;20395;-86
2022/05/15 05:52:16;;;;;;;;;;;;;;;9.90;82.78;101928.19;5004700;28;19909;-84
2022/05/15 05:54:41;;;;;;;;;;;;;;;9.88;83.16;101929.91;5005317;28;19913;-85
2022/05/15 05:57:07;;;;;;;;;;;;;;;9.93;83.45;101932.56;5004511;28;20000;-84
2022/05/15 05:59:32;;;;;;;;;;;;;;;9.91;83.94;101935.16;5020507;28;19909;-85
2022/05/15 06:01:57;;;;;;;;;;;;;;;9.91;83.97;101935.16;5020596;28;19952;-84
2022/05/15 06:07:07;;;;;;;;;;;;;;;9.94;84.21;101940.41;5024068;28;19919;-84
2022/05/15 06:09:33;;;;;;;;;;;;;;;10.00;84.48;101936.94;5004971;28;20300;-84
2022/05/15 06:11:58;;;;;;;;;;;;;;;10.05;84.51;101934.34;5019112;28;19963;-84
2022/05/15 06:14:24;;;;;;;;;;;;;;;10.10;84.09;101927.44;5017584;28;20220;-80
2022/05/15 06:16:49;;;;;;;;;;;;;;;10.13;84.00;101940.53;5000882;28;19916;-83
2022/05/15 06:19:14;;;;;;;;;;;;;;;10.13;84.28;101937.91;5017984;28;19920;-85
2022/05/15 06:21:39;;;;;;;;;;;;;;;10.20;83.48;101944.91;5001609;28;19909;-85
2022/05/15 06:24:05;;;;;;;;;;;;;;;10.28;83.18;101940.59;5019020;28;19967;-86
2022/05/15 06:26:30;;;;;;;;;;;;;;;10.32;83.14;101942.34;5001995;28;19909;-85
2022/05/15 06:28:55;;;;;;;;;;;;;;;10.37;83.12;101945.00;5002569;28;19920;-86
2022/05/15 06:31:20;;;;;;;;;;;;;;;10.37;82.28;101938.91;5002837;28;19913;-84
2022/05/15 06:33:46;;;;;;;;;;;;;;;10.37;81.90;101941.53;5001854;28;19913;-85
2022/05/15 06:36:12;;;;;;;;;;;;;;;10.42;81.99;101932.84;5000798;28;19929;-84
2022/05/15 06:38:40;;;;;;;;;;;;;;;10.45;81.87;101932.84;5000773;28;19909;-84
2022/05/15 06:41:06;;;;;;;;;;;;;;;10.55;81.50;101927.66;5001126;28;20388;-84
2022/05/15 06:43:33;;;;;;;;;;;;;;;10.59;81.38;101929.41;5018055;28;19951;-85
2022/05/15 06:45:58;;;;;;;;;;;;;;;10.61;80.90;101933.78;5000940;28;19913;-84
2022/05/15 06:48:23;;;;;;;;;;;;;;;10.59;78.19;101932.94;5000238;28;19916;-84
2022/05/15 06:50:49;;;;;;;;;;;;;;;10.65;78.69;101934.69;5016576;28;19909;-83
2022/05/15 06:53:15;;;;;;;;;;;;;;;10.70;78.80;101927.69;5001435;28;19916;-84
2022/05/15 06:58:24;;;;;;;;;;;;;;;10.75;78.66;101930.34;5020212;28;19967;-81
2022/05/15 07:00:49;;;;;;;;;;;;;;;10.82;78.83;101926.88;5000710;28;19909;-85
2022/05/15 07:03:15;;;;;;;;;;;;;;;10.81;77.43;101925.13;5001502;28;19955;-83
2022/05/15 07:05:40;;;;;;;;;;;;;;;10.81;77.78;101927.72;5000601;28;19963;-84
2022/05/15 07:08:08;;;;;;;;;;;;;;;10.84;77.32;101922.53;5002393;28;19936;-84
2022/05/15 07:10:33;;;;;;;;;;;;;;;10.91;77.55;101926.03;5001292;28;20339;-82
2022/05/15 07:12:59;;;;;;;;;;;;;;;10.96;76.24;101933.03;5017260;28;19909;-81
2022/05/15 07:15:24;;;;;;;;;;;;;;;11.02;75.20;101928.69;5017043;28;19917;-81
2022/05/15 07:17:49;;;;;;;;;;;;;;;11.07;75.25;101929.53;4999922;28;19916;-81
2022/05/15 07:20:14;;;;;;;;;;;;;;;11.09;74.72;101930.41;4999406;28;19909;-83
2022/05/15 07:22:39;;;;;;;;;;;;;;;11.09;74.23;101935.66;5000390;28;19913;-85
2022/05/15 07:25:05;;;;;;;;;;;;;;;11.15;75.26;101935.63;5000075;28;19909;-85
2022/05/15 07:27:30;;;;;;;;;;;;;;;11.22;72.86;101929.56;5017182;28;19916;-84
2022/05/15 07:29:55;;;;;;;;;;;;;;;11.26;70.79;101927.81;5000978;28;19912;-85
2022/05/15 07:32:20;;;;;;;;;;;;;;;11.30;72.30;101929.56;5002211;28;19909;-84
2022/05/15 07:34:46;;;;;;;;;;;;;;;11.31;72.12;101921.69;5001113;28;19920;-84
2022/05/15 07:37:12;;;;;;;;;;;;;;;11.32;67.18;101923.44;5001519;28;19908;-84
2022/05/15 07:39:37;;;;;;;;;;;;;;;11.40;69.73;101930.41;5017320;28;19990;-83
2022/05/15 07:42:02;;;;;;;;;;;;;;;11.44;70.83;101932.19;5000893;28;19913;-84
2022/05/15 07:44:28;;;;;;;;;;;;;;;11.47;70.53;101926.94;5000235;28;19916;-85
2022/05/15 07:46:53;;;;;;;;;;;;;;;11.52;67.74;101930.44;4999995;28;19909;-85
2022/05/15 07:49:18;;;;;;;;;;;;;;;11.54;68.79;101928.69;5000153;28;19909;-85
2022/05/15 07:51:44;;;;;;;;;;;;;;;11.56;64.83;101928.69;4999755;28;19916;-85
2022/05/15 07:54:11;;;;;;;;;;;;;;;11.61;66.94;101924.31;5000393;28;19909;-85
2022/05/15 07:56:36;;;;;;;;;;;;;;;11.62;67.93;101923.47;5016692;28;19923;-85
2022/05/15 07:59:01;;;;;;;;;;;;;;;11.72;65.91;101914.69;4999928;28;20287;-85
2022/05/15 08:01:26;;;;;;;;;;;;;;;11.83;66.60;101912.06;5016506;28;20435;-85
2022/05/15 08:03:51;;;;;;;;;;;;;;;11.97;63.74;101919.91;4999821;28;20000;-85
2022/05/15 08:09:02;;;;;;;;;;;;;;;12.08;64.97;101923.41;5018859;28;19952;-85
2022/05/15 08:11:28;;;;;;;;;;;;;;;12.08;65.64;101919.88;4999318;28;20284;-84
2022/05/15 08:13:54;;;;;;;;;;;;;;;12.05;65.43;101922.53;4999808;28;20380;-84
2022/05/15 08:16:20;;;;;;;;;;;;;;;12.00;65.27;101927.78;4999741;28;20366;-86
2022/05/15 08:24:14;;;;;;;;;;;;;;;12.07;62.39;101920.78;5018705;28;19920;-86
2022/05/15 08:26:39;;;;;;;;;;;;;;;12.11;64.46;101922.53;5000177;28;19909;-86
2022/05/15 08:29:04;;;;;;;;;;;;;;;12.20;63.46;101925.09;4999724;28;20007;-87
2022/05/15 08:31:30;;;;;;;;;;;;;;;12.24;63.64;101918.09;4999901;28;19909;-86
2022/05/15 08:33:56;;;;;;;;;;;;;;;12.26;60.64;101919.84;5000465;28;19916;-85
2022/05/15 08:36:21;;;;;;;;;;;;;;;12.32;60.44;101914.59;4999865;28;19912;-86
2022/05/15 08:38:46;;;;;;;;;;;;;;;12.34;60.14;101918.06;4999948;28;19916;-86
2022/05/15 08:41:26;;;;;;;;;;;;;;;12.36;58.17;101922.44;5000180;28;19909;-85
2022/05/15 08:43:55;;;;;;;;;;;;;;;12.34;61.02;101918.06;4999908;28;19979;-86
2022/05/15 08:46:31;;;;;;;;;;;;;;;12.36;61.47;101922.44;5016333;28;19916;-86
2022/05/15 08:49:00;;;;;;;;;;;;;;;12.42;59.03;101917.16;5001142;28;19931;-86
2022/05/15 08:51:25;;;;;;;;;;;;;;;12.55;56.31;101915.34;5017025;28;19909;-82
2022/05/15 08:53:50;;;;;;;;;;;;;;;12.57;60.53;101911.84;5000485;28;19915;-82
2022/05/15 08:56:15;;;;;;;;;;;;;;;12.57;60.17;101914.47;5016310;28;19921;-82
2022/05/15 08:58:41;;;;;;;;;;;;;;;12.61;58.28;101908.34;4999363;28;20000;-82
2022/05/15 09:01:08;;;;;;;;;;;;;;;12.63;59.71;101911.81;5033606;28;19917;-82
2022/05/15 09:03:40;;;;;;;;;;;;;;;12.89;57.51;101909.94;4999912;28;19917;-82
2022/05/15 09:06:08;;;;;;;;;;;;;;;12.95;53.33;101904.63;5000889;28;19909;-81
2022/05/15 09:08:33;;;;;;;;;;;;;;;12.90;56.02;101906.41;5016257;28;19913;-81
2022/05/15 09:11:01;;;;;;;;;;;;;;;12.93;56.55;101902.00;5034570;28;19966;-84
2022/05/15 09:13:39;;;;;;;;;;;;;;;13.09;56.62;101900.16;5000696;28;19920;-82
2022/05/15 09:16:04;;;;;;;;;;;;;;;13.18;56.74;101904.44;4999586;28;19913;-81
2022/05/15 09:18:30;;;;;;;;;;;;;;;13.40;55.83;101912.19;4999334;28;19916;-81
2022/05/15 09:21:04;;;;;;;;;;;;;;;13.44;57.31;101903.41;5016258;28;19909;-81
2022/05/15 09:23:36;;;;;;;;;;;;;;;13.51;59.14;101905.06;5038741;28;20380;-86
2022/05/15 09:26:07;;;;;;;;;;;;;;;13.42;55.90;101907.81;5004531;28;19916;-86
2022/05/15 09:28:40;;;;;;;;;;;;;;;13.46;58.51;101907.75;5019927;28;20387;-85
2022/05/15 09:31:05;;;;;;;;;;;;;;;13.57;52.29;101898.94;5004589;28;19929;-83
2022/05/15 09:46:27;;;;;;;;;;;;;;;13.79;50.47;101902.19;6052394;23;19997;-84
2022/05/15 09:51:11;;;;;;;1.52;0.90;;;;;;;14.02;52.85;101896.69;5082622;28;20391;-85
2022/05/15 09:53:40;;;;;;;4.32;1.13;;;;;;;13.97;50.40;101888.84;5039346;28;20882;-83
2022/05/15 09:56:09;;;;;;;1.50;0.82;;;;;;;14.19;54.49;101893.84;5014350;28;20028;-85
2022/05/15 09:58:39;;;;;;;1.25;0.90;;;;;;;14.23;50.92;101886.81;5032284;28;20026;-85
2022/05/15 10:01:57;;;;;;;2.28;1.00;;;;;;;14.19;55.03;101881.59;5044516;28;20028;-86
2022/05/15 10:04:25;;;;;;;1.23;0.80;;;;;;;14.54;50.49;101884.66;5027616;28;20491;-85
2022/05/15 10:07:06;;;;;;;2.22;0.95;;;;;;;14.79;52.49;101889.59;5013569;28;20021;-85
2022/05/15 10:09:42;;;;;;;2.40;1.00;;;;;;;14.73;51.58;101881.81;5014051;28;20034;-85
2022/05/15 10:12:12;;;;;;;4.25;0.80;;;;;;;14.58;51.20;101886.34;5013706;28;20033;-86
2022/05/15 10:14:42;;;;;;;1.38;0.60;;;;;;;14.48;51.47;101887.34;5014847;28;20120;-86
2022/05/15 10:17:09;;;;;;;2.83;0.90;;;;;;;14.45;47.15;101874.25;5030227;28;20472;-86
2022/05/15 10:19:41;;;;;;;0.73;0.50;;;;;;;14.50;46.85;101872.44;5013385;28;20025;-85
2022/05/15 10:22:41;;;;;;;1.63;0.90;;;;;;;14.61;51.74;101873.16;5013791;28;20060;-85
2022/05/15 10:25:41;;;;;;;0.85;0.70;;;;;;;14.67;50.48;101867.84;5028111;28;20390;-85
2022/05/15 10:28:10;;;;;;;0.95;0.80;;;;;;;15.09;50.85;101861.06;5012928;28;20164;-85
2022/05/15 10:30:42;;;;;;;1.33;0.75;;;;;;;15.33;51.05;101854.53;5030202;28;20124;-85
2022/05/15 10:33:16;;;;;;;1.50;1.02;;;;;;;15.25;49.10;101846.75;5014259;28;20068;-86
2022/05/15 10:36:00;;;;;;;2.75;1.00;;;;;;;15.15;46.76;101845.19;5013364;28;20093;-85
2022/05/15 10:38:44;;;;;;;2.42;0.82;;;;;;;15.15;46.75;101846.06;5029686;28;20483;-85
2022/05/15 10:41:26;;;;;;;4.18;0.95;;;;;;;15.26;48.91;101845.00;5012760;28;20045;-85
2022/05/15 10:44:18;;;;;;;1.08;0.70;;;;;;;15.54;51.19;101832.19;5013618;28;20049;-85
2022/05/15 10:46:55;;;;;;;1.58;0.88;;;;;;;15.67;52.37;101846.88;5026654;28;20148;-85
2022/05/15 10:49:49;;;;;;;1.00;0.90;;;;;;;16.06;46.27;101835.59;5012537;28;20041;-85
2022/05/15 10:52:23;;;;;;;2.35;1.35;;;;;;;16.08;47.68;101830.31;5029360;28;20041;-85
2022/05/15 10:58:34;;;;;;;0.80;0.57;;;;;;;15.80;46.02;101838.75;5030955;28;20549;-84
2022/05/15 11:01:27;;;;;;;0.98;0.57;;;;;;;15.94;43.63;101828.81;5023697;28;20088;-85
2022/05/15 11:04:30;;;;;;;1.83;0.60;;;;;;;15.95;45.74;101830.56;5015724;28;20057;-85
2022/05/15 11:07:03;;;;;;;0.77;0.60;;;;;;;15.92;45.87;101827.09;4999258;28;20022;-85
2022/05/15 11:09:37;;;;;;;1.05;0.90;;;;;;;16.30;44.67;101820.16;5016394;28;20042;-84
2022/05/15 11:12:02;;;;;;;1.38;0.60;;;;;;;16.34;42.93;101820.03;5015378;28;20025;-85
2022/05/15 11:14:33;;;;;;;0.65;0.60;;;;;;;16.32;43.77;101819.22;5015351;28;20037;-85
2022/05/15 11:17:04;;;;;;;0.65;0.60;;;;;;;16.47;44.32;101827.66;4999354;28;20030;-84
2022/05/15 11:19:41;;;;;;;1.00;0.50;;;;;;;16.46;42.46;101820.69;5015021;28;20113;-85
2022/05/15 11:22:12;;;;;;;2.15;0.70;;;;;;;16.51;43.11;101810.88;5000102;28;20052;-86
2022/05/15 11:25:13;;;;;;;2.80;0.90;;;;;;;16.65;44.41;101811.41;5019173;28;20053;-84
2022/05/15 11:27:49;;;;;;;0.68;0.60;;;;;;;16.85;43.31;101805.66;5006842;28;20030;-85
2022/05/15 11:30:23;;;;;;;1.48;0.70;;;;;;;16.69;41.57;101805.16;5002951;28;20022;-84
2022/05/15 11:32:54;;;;;;;0.63;0.50;;;;;;;16.87;44.42;101802.97;5019942;28;20026;-85
2022/05/15 11:35:22;;;;;;;1.00;0.65;;;;;;;16.72;42.01;101802.44;5016691;28;20059;-84
2022/05/15 11:37:57;;;;;;;0.75;0.75;;;;;;;16.58;43.40;101801.03;5018041;28;20446;-85
2022/05/15 11:40:45;;;;;;;1.77;1.40;;;;;;;16.75;47.47;101804.16;5017689;28;20029;-85
2022/05/15 11:43:29;;;;;;;0.70;0.60;;;;;;;16.87;43.78;101797.72;5000704;28;20061;-85
2022/05/15 11:45:59;;;;;;;0.97;0.63;;;;;;;17.12;44.55;101797.97;5015284;28;20034;-83
2022/05/15 11:48:44;;;;;;;1.13;0.50;;;;;;;17.43;44.17;101804.22;5000342;28;20026;-83
2022/05/15 11:51:13;;;;;;;0.65;0.65;;;;;;;17.48;44.04;101804.94;5017317;28;20042;-84
2022/05/15 11:53:53;;;;;;;2.25;1.13;;;;;;;17.55;47.34;101802.09;5016270;28;20022;-84
2022/05/15 11:56:24;;;;;;;1.85;0.75;;;;;;;17.71;44.78;101791.09;4999413;28;20424;-84
2022/05/15 12:24:49;;;;;;;2.67;0.60;;;;;;;18.38;43.35;101766.22;5531767;23;20059;-87
2022/05/15 12:27:20;;;;;;;1.30;0.93;;;;;;;18.48;43.19;101764.97;4977001;28;20030;-87
2022/05/15 12:29:54;;;;;;;1.13;0.75;;;;;;;18.59;39.75;101764.63;4992894;28;20045;-86
2022/05/15 13:53:24;;;;;;;1.13;0.73;;;;;;;21.47;33.71;101673.84;5092152;27;20373;-84
2022/05/15 13:55:55;;;;;;;1.52;0.88;;;;;;;21.57;35.15;101677.84;5073762;28;20118;-84
2022/05/15 13:58:36;;;;;;;0.90;0.60;;;;;;;21.78;33.94;101675.94;5073409;28;20031;-84
2022/05/15 14:01:07;;;;;;;0.60;0.60;;;;;;;21.78;33.80;101674.13;5073281;28;20043;-85
2022/05/15 14:03:35;;;;;;;0.85;0.68;;;;;;;22.08;33.43;101668.25;5089916;28;20473;-84
2022/05/15 14:06:29;;;;;;;11.75;10.35;;;;;;;22.07;30.95;101669.22;5073171;28;20166;-83
2022/05/15 14:08:59;;;;;;;14.38;12.70;;;;;;;21.93;32.87;101671.69;5074641;28;20069;-84
2022/05/15 14:11:27;;;;;;;19.10;15.93;;;;;;;22.02;31.85;101665.94;5072187;28;20119;-84
2022/05/15 15:39:19;;;;;;;0.88;0.70;;;;;;;22.84;29.93;101583.69;5070812;28;20346;-86
2022/05/15 15:41:44;;;;;;;1.20;1.00;;;;;;;22.95;31.28;101586.66;5052604;28;20514;-87
2022/05/15 15:44:09;;;;;;;1.67;1.10;;;;;;;23.01;29.13;101586.31;5053112;28;20035;-87
2022/05/15 15:46:35;;;;;;;0.77;0.63;;;;;;;23.03;29.17;101579.09;5070917;28;20020;-86
2022/05/15 15:49:00;;;;;;;1.00;0.70;;;;;;;23.19;31.45;101584.50;5054289;28;20021;-86
2022/05/15 22:06:10;;;;;;;1.20;1.10;;;;;;;13.00;57.96;101620.44;6174026;23;20051;-79
2022/05/15 22:08:36;;;;;;;1.83;1.30;;;;;;;12.97;58.02;101623.13;6197012;23;20031;-78
2022/05/15 22:11:04;;;;;;;1.75;1.40;;;;;;;12.89;58.38;101624.97;6195547;23;20431;-77
2022/05/15 22:13:29;;;;;;;2.45;2.03;;;;;;;12.92;58.79;101626.69;6222148;23;20001;-79
2022/05/15 22:15:55;;;;;;;2.75;2.55;;;;;;;12.91;58.32;101622.31;6182609;23;20015;-79
2022/05/15 22:18:22;;;;;;;7.75;5.90;;;;;;;12.92;57.92;101627.53;6174341;23;20005;-79
2022/05/15 22:20:53;;;;;;;3.38;3.17;;;;;;;12.96;56.86;101634.50;6173196;23;20005;-79
2022/05/15 22:23:20;;;;;;;2.60;1.90;;;;;;;12.95;56.89;101632.78;6168617;23;20005;-79
2022/05/15 22:25:46;;;;;;;1.27;0.90;;;;;;;12.95;57.41;101629.25;6168034;23;20005;-80
2022/05/15 22:28:12;;;;;;;3.60;1.83;;;;;;;12.91;58.13;101630.19;6164490;23;20032;-80
2022/05/15 22:30:38;;;;;;;2.35;1.00;;;;;;;12.80;57.99;101630.28;6139868;23;20032;-80